sensor_id;sensor_type;location;lat;lon;timestamp;temperature;humidity
17385;DHT22;8810;48.680;8.894;2022-08-16T00:01:47;15.80;99.90
17385;DHT22;8810;48.680;8.894;2022-08-16T00:04:14;15.80;99.90
17385;DHT22;8810;48.680;8.894;2022-08-16T00:06:41;15.80;99.90
17385;DHT22;8810;48.680;8.894;2022-08-16T00:09:10;15.90;99.90
17385;DHT22;8810;48.680;8.894;2022-08-16T00:11:38;15.80;99.90
17385;DHT22;8810;48.680;8.894;2022-08-16T00:14:09;15.80;99.90
17385;DHT22;8810;48.680;8.894;2022-08-16T00:16:36;15.90;99.90
17385;DHT22;8810;48.680;8.894;2022-08-16T00:19:04;15.90;99.90
17385;DHT22;8810;48.680;8.894;2022-08-16T00:21:31;15.90;99.90
17385;DHT22;8810;48.680;8.894;2022-08-16T00:23:59;15.90;99.90
17385;DHT22;8810;48.680;8.894;2022-08-16T00:26:27;15.80;99.90
17385;DHT22;8810;48.680;8.894;2022-08-16T00:28:54;15.80;99.90
17385;DHT22;8810;48.680;8.894;2022-08-16T00:31:21;15.80;99.90
17385;DHT22;8810;48.680;8.894;2022-08-16T00:33:48;15.70;99.90
17385;DHT22;8810;48.680;8.894;2022-08-16T00:36:15;15.70;99.90
17385;DHT22;8810;48.680;8.894;2022-08-16T00:38:42;15.70;99.90
17385;DHT22;8810;48.680;8.894;2022-08-16T00:41:09;15.70;99.90
17385;DHT22;8810;48.680;8.894;2022-08-16T00:43:37;15.70;99.90
17385;DHT22;8810;48.680;8.894;2022-08-16T00:46:12;15.70;99.90
17385;DHT22;8810;48.680;8.894;2022-08-16T00:48:40;15.80;99.90
17385;DHT22;8810;48.680;8.894;2022-08-16T00:51:09;15.70;99.90
17385;DHT22;8810;48.680;8.894;2022-08-16T00:53:36;15.70;99.90
17385;DHT22;8810;48.680;8.894;2022-08-16T00:56:06;15.70;99.90
17385;DHT22;8810;48.680;8.894;2022-08-16T00:58:39;15.70;99.90
17385;DHT22;8810;48.680;8.894;2022-08-16T01:01:08;15.70;99.90
17385;DHT22;8810;48.680;8.894;2022-08-16T01:03:37;15.70;99.90
17385;DHT22;8810;48.680;8.894;2022-08-16T01:06:05;15.70;99.90
17385;DHT22;8810;48.680;8.894;2022-08-16T01:08:33;15.60;99.90
17385;DHT22;8810;48.680;8.894;2022-08-16T01:11:01;15.60;99.90
17385;DHT22;8810;48.680;8.894;2022-08-16T01:13:31;15.60;99.90
17385;DHT22;8810;48.680;8.894;2022-08-16T01:16:02;15.70;99.90
17385;DHT22;8810;48.680;8.894;2022-08-16T01:18:32;15.70;99.90
17385;DHT22;8810;48.680;8.894;2022-08-16T01:21:10;15.70;99.90
17385;DHT22;8810;48.680;8.894;2022-08-16T01:23:57;15.70;99.90
17385;DHT22;8810;48.680;8.894;2022-08-16T01:26:27;15.80;99.90
17385;DHT22;8810;48.680;8.894;2022-08-16T01:28:57;15.80;99.90
17385;DHT22;8810;48.680;8.894;2022-08-16T01:31:25;15.70;99.90
17385;DHT22;8810;48.680;8.894;2022-08-16T01:33:52;15.70;99.90
17385;DHT22;8810;48.680;8.894;2022-08-16T01:36:20;15.70;99.90
17385;DHT22;8810;48.680;8.894;2022-08-16T01:38:49;15.70;99.90
17385;DHT22;8810;48.680;8.894;2022-08-16T01:41:19;15.70;99.90
17385;DHT22;8810;48.680;8.894;2022-08-16T01:43:49;15.80;99.90
17385;DHT22;8810;48.680;8.894;2022-08-16T01:46:22;15.80;99.90
17385;DHT22;8810;48.680;8.894;2022-08-16T01:48:53;15.80;99.90
17385;DHT22;8810;48.680;8.894;2022-08-16T01:51:22;15.90;99.90
17385;DHT22;8810;48.680;8.894;2022-08-16T01:53:52;15.90;99.90
17385;DHT22;8810;48.680;8.894;2022-08-16T01:56:20;15.90;99.90
17385;DHT22;8810;48.680;8.894;2022-08-16T01:58:47;15.90;99.90
17385;DHT22;8810;48.680;8.894;2022-08-16T02:01:14;15.90;99.90
17385;DHT22;8810;48.680;8.894;2022-08-16T02:03:41;15.90;99.90
17385;DHT22;8810;48.680;8.894;2022-08-16T02:06:08;15.90;99.90
17385;DHT22;8810;48.680;8.894;2022-08-16T02:08:35;15.90;99.90
17385;DHT22;8810;48.680;8.894;2022-08-16T02:11:06;15.90;99.90
17385;DHT22;8810;48.680;8.894;2022-08-16T02:13:34;15.90;99.90
17385;DHT22;8810;48.680;8.894;2022-08-16T02:16:01;15.90;99.90
17385;DHT22;8810;48.680;8.894;2022-08-16T02:18:29;15.90;99.90
17385;DHT22;8810;48.680;8.894;2022-08-16T02:20:56;15.90;99.90
17385;DHT22;8810;48.680;8.894;2022-08-16T02:23:23;16.00;99.90
17385;DHT22;8810;48.680;8.894;2022-08-16T02:25:50;16.00;99.90
17385;DHT22;8810;48.680;8.894;2022-08-16T02:28:19;16.00;99.90
17385;DHT22;8810;48.680;8.894;2022-08-16T02:30:46;16.00;99.90
17385;DHT22;8810;48.680;8.894;2022-08-16T02:33:13;16.00;99.90
17385;DHT22;8810;48.680;8.894;2022-08-16T02:35:40;16.00;99.90
17385;DHT22;8810;48.680;8.894;2022-08-16T02:38:07;16.00;99.90
17385;DHT22;8810;48.680;8.894;2022-08-16T02:40:35;15.90;99.90
17385;DHT22;8810;48.680;8.894;2022-08-16T02:43:02;15.90;99.90
17385;DHT22;8810;48.680;8.894;2022-08-16T02:45:30;15.80;99.90
17385;DHT22;8810;48.680;8.894;2022-08-16T02:47:58;15.80;99.90
17385;DHT22;8810;48.680;8.894;2022-08-16T02:50:25;15.80;99.90
17385;DHT22;8810;48.680;8.894;2022-08-16T02:52:52;15.80;99.90
17385;DHT22;8810;48.680;8.894;2022-08-16T02:55:20;15.80;99.90
17385;DHT22;8810;48.680;8.894;2022-08-16T02:57:48;15.80;99.90
17385;DHT22;8810;48.680;8.894;2022-08-16T03:00:15;15.80;99.90
17385;DHT22;8810;48.680;8.894;2022-08-16T03:02:43;15.80;99.90
17385;DHT22;8810;48.680;8.894;2022-08-16T03:05:11;15.80;99.90
17385;DHT22;8810;48.680;8.894;2022-08-16T03:07:39;15.80;99.90
17385;DHT22;8810;48.680;8.894;2022-08-16T03:10:08;15.80;99.90
17385;DHT22;8810;48.680;8.894;2022-08-16T03:12:37;15.70;99.90
17385;DHT22;8810;48.680;8.894;2022-08-16T03:15:05;15.70;99.90
17385;DHT22;8810;48.680;8.894;2022-08-16T03:17:32;15.70;99.90
17385;DHT22;8810;48.680;8.894;2022-08-16T03:20:01;15.70;99.90
17385;DHT22;8810;48.680;8.894;2022-08-16T03:22:28;15.70;99.90
17385;DHT22;8810;48.680;8.894;2022-08-16T03:24:56;15.70;99.90
17385;DHT22;8810;48.680;8.894;2022-08-16T03:27:24;15.70;99.90
17385;DHT22;8810;48.680;8.894;2022-08-16T03:29:52;15.70;99.90
17385;DHT22;8810;48.680;8.894;2022-08-16T03:32:18;15.80;99.90
17385;DHT22;8810;48.680;8.894;2022-08-16T03:34:45;15.80;99.90
17385;DHT22;8810;48.680;8.894;2022-08-16T03:37:14;15.80;99.90
17385;DHT22;8810;48.680;8.894;2022-08-16T03:39:40;15.80;99.90
17385;DHT22;8810;48.680;8.894;2022-08-16T03:42:07;15.90;99.90
17385;DHT22;8810;48.680;8.894;2022-08-16T03:44:35;15.90;99.90
17385;DHT22;8810;48.680;8.894;2022-08-16T03:47:02;15.90;99.90
17385;DHT22;8810;48.680;8.894;2022-08-16T03:49:29;15.90;99.90
17385;DHT22;8810;48.680;8.894;2022-08-16T03:51:56;15.80;99.90
17385;DHT22;8810;48.680;8.894;2022-08-16T03:54:25;15.80;99.90
17385;DHT22;8810;48.680;8.894;2022-08-16T03:56:52;15.80;99.90
17385;DHT22;8810;48.680;8.894;2022-08-16T03:59:18;15.80;99.90
17385;DHT22;8810;48.680;8.894;2022-08-16T04:01:45;15.80;99.90
17385;DHT22;8810;48.680;8.894;2022-08-16T04:04:12;15.80;99.90
17385;DHT22;8810;48.680;8.894;2022-08-16T04:06:39;15.80;99.90
17385;DHT22;8810;48.680;8.894;2022-08-16T04:09:06;15.80;99.90
17385;DHT22;8810;48.680;8.894;2022-08-16T04:11:35;15.80;99.90
17385;DHT22;8810;48.680;8.894;2022-08-16T04:14:02;15.80;99.90
17385;DHT22;8810;48.680;8.894;2022-08-16T04:16:29;15.90;99.90
17385;DHT22;8810;48.680;8.894;2022-08-16T04:18:57;15.90;99.90
17385;DHT22;8810;48.680;8.894;2022-08-16T04:21:24;15.90;99.90
17385;DHT22;8810;48.680;8.894;2022-08-16T04:23:50;15.90;99.90
17385;DHT22;8810;48.680;8.894;2022-08-16T04:26:17;15.90;99.90
17385;DHT22;8810;48.680;8.894;2022-08-16T04:28:45;15.90;99.90
17385;DHT22;8810;48.680;8.894;2022-08-16T04:31:12;15.90;99.90
17385;DHT22;8810;48.680;8.894;2022-08-16T04:33:39;16.00;99.90
17385;DHT22;8810;48.680;8.894;2022-08-16T04:36:06;16.00;99.90
17385;DHT22;8810;48.680;8.894;2022-08-16T04:38:34;16.10;99.90
17385;DHT22;8810;48.680;8.894;2022-08-16T04:41:01;16.10;99.90
17385;DHT22;8810;48.680;8.894;2022-08-16T04:43:28;16.10;99.90
17385;DHT22;8810;48.680;8.894;2022-08-16T04:45:56;16.10;99.90
17385;DHT22;8810;48.680;8.894;2022-08-16T04:48:24;16.10;99.90
17385;DHT22;8810;48.680;8.894;2022-08-16T04:50:51;16.20;99.90
17385;DHT22;8810;48.680;8.894;2022-08-16T04:53:17;16.20;99.90
17385;DHT22;8810;48.680;8.894;2022-08-16T04:55:45;16.20;99.90
17385;DHT22;8810;48.680;8.894;2022-08-16T04:58:12;16.20;99.90
17385;DHT22;8810;48.680;8.894;2022-08-16T05:00:39;16.20;99.90
17385;DHT22;8810;48.680;8.894;2022-08-16T05:03:09;16.20;99.90
17385;DHT22;8810;48.680;8.894;2022-08-16T05:05:39;16.30;99.90
17385;DHT22;8810;48.680;8.894;2022-08-16T05:08:07;16.30;99.90
17385;DHT22;8810;48.680;8.894;2022-08-16T05:10:34;16.30;99.90
17385;DHT22;8810;48.680;8.894;2022-08-16T05:13:03;16.40;99.90
17385;DHT22;8810;48.680;8.894;2022-08-16T05:15:30;16.40;99.90
17385;DHT22;8810;48.680;8.894;2022-08-16T05:17:57;16.40;99.90
17385;DHT22;8810;48.680;8.894;2022-08-16T05:20:26;16.40;99.90
17385;DHT22;8810;48.680;8.894;2022-08-16T05:22:53;16.40;99.90
17385;DHT22;8810;48.680;8.894;2022-08-16T05:25:20;16.40;99.90
17385;DHT22;8810;48.680;8.894;2022-08-16T05:27:47;16.40;99.90
17385;DHT22;8810;48.680;8.894;2022-08-16T05:30:14;16.50;99.90
17385;DHT22;8810;48.680;8.894;2022-08-16T05:32:41;16.50;99.90
17385;DHT22;8810;48.680;8.894;2022-08-16T05:35:10;16.50;99.90
17385;DHT22;8810;48.680;8.894;2022-08-16T05:37:40;16.50;99.90
17385;DHT22;8810;48.680;8.894;2022-08-16T05:40:09;16.50;99.90
17385;DHT22;8810;48.680;8.894;2022-08-16T05:42:36;16.50;99.90
17385;DHT22;8810;48.680;8.894;2022-08-16T05:45:04;16.50;99.90
17385;DHT22;8810;48.680;8.894;2022-08-16T05:47:32;16.60;99.90
17385;DHT22;8810;48.680;8.894;2022-08-16T05:49:58;16.50;99.90
17385;DHT22;8810;48.680;8.894;2022-08-16T05:52:25;16.60;99.90
17385;DHT22;8810;48.680;8.894;2022-08-16T05:54:53;16.60;99.90
17385;DHT22;8810;48.680;8.894;2022-08-16T05:57:20;16.60;99.90
17385;DHT22;8810;48.680;8.894;2022-08-16T05:59:47;16.60;99.90
17385;DHT22;8810;48.680;8.894;2022-08-16T06:02:15;16.70;99.90
17385;DHT22;8810;48.680;8.894;2022-08-16T06:04:42;16.90;99.90
17385;DHT22;8810;48.680;8.894;2022-08-16T06:07:10;17.00;99.90
17385;DHT22;8810;48.680;8.894;2022-08-16T06:09:37;17.20;99.90
17385;DHT22;8810;48.680;8.894;2022-08-16T06:12:06;17.30;99.90
17385;DHT22;8810;48.680;8.894;2022-08-16T06:14:34;17.40;99.90
17385;DHT22;8810;48.680;8.894;2022-08-16T06:17:00;17.50;99.90
17385;DHT22;8810;48.680;8.894;2022-08-16T06:19:27;17.60;99.90
17385;DHT22;8810;48.680;8.894;2022-08-16T06:21:54;17.70;99.90
17385;DHT22;8810;48.680;8.894;2022-08-16T06:24:21;17.80;99.90
17385;DHT22;8810;48.680;8.894;2022-08-16T06:26:48;17.90;99.90
17385;DHT22;8810;48.680;8.894;2022-08-16T06:29:16;18.00;99.90
17385;DHT22;8810;48.680;8.894;2022-08-16T06:31:43;18.10;99.90
17385;DHT22;8810;48.680;8.894;2022-08-16T06:34:10;18.20;99.90
17385;DHT22;8810;48.680;8.894;2022-08-16T06:36:39;18.20;99.90
17385;DHT22;8810;48.680;8.894;2022-08-16T06:39:07;18.30;99.90
17385;DHT22;8810;48.680;8.894;2022-08-16T06:44:02;18.50;99.90
17385;DHT22;8810;48.680;8.894;2022-08-16T06:46:33;18.50;99.90
17385;DHT22;8810;48.680;8.894;2022-08-16T06:49:04;18.60;99.90
17385;DHT22;8810;48.680;8.894;2022-08-16T06:51:31;18.70;99.90
17385;DHT22;8810;48.680;8.894;2022-08-16T06:53:58;18.80;99.90
17385;DHT22;8810;48.680;8.894;2022-08-16T06:56:26;19.00;99.90
17385;DHT22;8810;48.680;8.894;2022-08-16T06:58:56;19.10;99.90
17385;DHT22;8810;48.680;8.894;2022-08-16T07:01:23;19.30;99.90
17385;DHT22;8810;48.680;8.894;2022-08-16T07:03:52;19.40;99.90
17385;DHT22;8810;48.680;8.894;2022-08-16T07:06:20;19.60;99.90
17385;DHT22;8810;48.680;8.894;2022-08-16T07:08:48;19.70;99.90
17385;DHT22;8810;48.680;8.894;2022-08-16T07:11:16;19.90;99.90
17385;DHT22;8810;48.680;8.894;2022-08-16T07:13:44;20.00;99.90
17385;DHT22;8810;48.680;8.894;2022-08-16T07:16:12;20.10;99.90
17385;DHT22;8810;48.680;8.894;2022-08-16T07:18:41;20.30;99.90
17385;DHT22;8810;48.680;8.894;2022-08-16T07:21:10;20.50;99.90
17385;DHT22;8810;48.680;8.894;2022-08-16T07:23:38;20.60;99.90
17385;DHT22;8810;48.680;8.894;2022-08-16T07:26:07;20.80;99.90
17385;DHT22;8810;48.680;8.894;2022-08-16T07:28:35;21.00;99.90
17385;DHT22;8810;48.680;8.894;2022-08-16T07:31:03;21.20;99.90
17385;DHT22;8810;48.680;8.894;2022-08-16T07:33:31;21.40;99.90
17385;DHT22;8810;48.680;8.894;2022-08-16T07:35:59;21.60;99.90
17385;DHT22;8810;48.680;8.894;2022-08-16T07:38:28;21.90;99.90
17385;DHT22;8810;48.680;8.894;2022-08-16T07:40:55;22.10;99.90
17385;DHT22;8810;48.680;8.894;2022-08-16T07:43:22;22.20;99.90
17385;DHT22;8810;48.680;8.894;2022-08-16T07:45:50;22.40;99.90
17385;DHT22;8810;48.680;8.894;2022-08-16T07:48:17;22.60;99.90
17385;DHT22;8810;48.680;8.894;2022-08-16T07:50:44;22.70;99.90
17385;DHT22;8810;48.680;8.894;2022-08-16T07:53:12;22.80;99.90
17385;DHT22;8810;48.680;8.894;2022-08-16T07:55:40;22.80;99.90
17385;DHT22;8810;48.680;8.894;2022-08-16T07:58:07;22.80;99.90
17385;DHT22;8810;48.680;8.894;2022-08-16T08:00:35;22.70;99.90
17385;DHT22;8810;48.680;8.894;2022-08-16T08:03:04;22.50;99.90
17385;DHT22;8810;48.680;8.894;2022-08-16T08:05:32;22.40;99.90
17385;DHT22;8810;48.680;8.894;2022-08-16T08:07:59;22.30;99.90
17385;DHT22;8810;48.680;8.894;2022-08-16T08:10:26;22.50;99.90
17385;DHT22;8810;48.680;8.894;2022-08-16T08:12:54;22.80;99.90
17385;DHT22;8810;48.680;8.894;2022-08-16T08:15:22;23.10;99.90
17385;DHT22;8810;48.680;8.894;2022-08-16T08:17:50;23.10;99.90
17385;DHT22;8810;48.680;8.894;2022-08-16T08:20:19;23.20;99.90
17385;DHT22;8810;48.680;8.894;2022-08-16T08:22:48;23.20;99.90
17385;DHT22;8810;48.680;8.894;2022-08-16T08:25:16;23.10;99.90
17385;DHT22;8810;48.680;8.894;2022-08-16T08:27:45;23.10;99.90
17385;DHT22;8810;48.680;8.894;2022-08-16T08:30:13;22.90;99.90
17385;DHT22;8810;48.680;8.894;2022-08-16T08:32:40;22.80;99.90
17385;DHT22;8810;48.680;8.894;2022-08-16T08:35:08;22.70;99.90
17385;DHT22;8810;48.680;8.894;2022-08-16T08:37:36;22.60;99.90
17385;DHT22;8810;48.680;8.894;2022-08-16T08:40:05;22.70;99.90
17385;DHT22;8810;48.680;8.894;2022-08-16T08:42:33;22.80;99.90
17385;DHT22;8810;48.680;8.894;2022-08-16T08:44:59;23.00;99.90
17385;DHT22;8810;48.680;8.894;2022-08-16T08:47:30;23.40;99.90
17385;DHT22;8810;48.680;8.894;2022-08-16T08:49:58;23.80;99.90
17385;DHT22;8810;48.680;8.894;2022-08-16T08:52:25;24.10;99.90
17385;DHT22;8810;48.680;8.894;2022-08-16T08:54:52;24.30;99.90
17385;DHT22;8810;48.680;8.894;2022-08-16T08:57:19;24.50;99.90
17385;DHT22;8810;48.680;8.894;2022-08-16T08:59:46;24.50;99.90
17385;DHT22;8810;48.680;8.894;2022-08-16T09:02:13;24.30;99.90
17385;DHT22;8810;48.680;8.894;2022-08-16T09:04:42;24.00;99.90
17385;DHT22;8810;48.680;8.894;2022-08-16T09:07:10;23.60;99.90
17385;DHT22;8810;48.680;8.894;2022-08-16T09:09:37;23.60;99.90
17385;DHT22;8810;48.680;8.894;2022-08-16T09:12:04;23.70;99.90
17385;DHT22;8810;48.680;8.894;2022-08-16T09:14:33;24.00;99.90
17385;DHT22;8810;48.680;8.894;2022-08-16T09:17:00;24.40;99.90
17385;DHT22;8810;48.680;8.894;2022-08-16T09:19:27;24.70;99.90
17385;DHT22;8810;48.680;8.894;2022-08-16T09:21:56;24.80;99.90
17385;DHT22;8810;48.680;8.894;2022-08-16T09:24:22;24.90;99.90
17385;DHT22;8810;48.680;8.894;2022-08-16T09:26:49;25.00;99.90
17385;DHT22;8810;48.680;8.894;2022-08-16T09:29:16;24.90;99.90
17385;DHT22;8810;48.680;8.894;2022-08-16T09:31:45;25.00;99.90
17385;DHT22;8810;48.680;8.894;2022-08-16T09:34:12;25.30;99.90
17385;DHT22;8810;48.680;8.894;2022-08-16T09:36:39;25.60;99.90
17385;DHT22;8810;48.680;8.894;2022-08-16T09:39:07;26.00;99.90
17385;DHT22;8810;48.680;8.894;2022-08-16T09:41:34;26.40;99.50
17385;DHT22;8810;48.680;8.894;2022-08-16T09:44:01;26.70;99.50
17385;DHT22;8810;48.680;8.894;2022-08-16T09:46:29;27.00;99.00
17385;DHT22;8810;48.680;8.894;2022-08-16T09:48:56;27.20;98.10
17385;DHT22;8810;48.680;8.894;2022-08-16T09:51:24;27.00;98.60
17385;DHT22;8810;48.680;8.894;2022-08-16T09:53:52;26.80;98.60
17385;DHT22;8810;48.680;8.894;2022-08-16T09:56:25;26.40;99.30
17385;DHT22;8810;48.680;8.894;2022-08-16T09:58:53;26.20;99.30
17385;DHT22;8810;48.680;8.894;2022-08-16T10:01:21;26.10;99.90
17385;DHT22;8810;48.680;8.894;2022-08-16T10:03:50;26.00;99.90
17385;DHT22;8810;48.680;8.894;2022-08-16T10:06:17;26.10;99.90
17385;DHT22;8810;48.680;8.894;2022-08-16T10:08:46;26.30;99.90
17385;DHT22;8810;48.680;8.894;2022-08-16T10:11:13;26.50;99.50
17385;DHT22;8810;48.680;8.894;2022-08-16T10:13:59;26.70;99.30
17385;DHT22;8810;48.680;8.894;2022-08-16T10:16:26;26.90;98.60
17385;DHT22;8810;48.680;8.894;2022-08-16T10:18:53;26.90;98.50
17385;DHT22;8810;48.680;8.894;2022-08-16T10:21:21;26.80;98.80
17385;DHT22;8810;48.680;8.894;2022-08-16T10:23:48;26.70;98.50
17385;DHT22;8810;48.680;8.894;2022-08-16T10:26:17;26.50;98.60
17385;DHT22;8810;48.680;8.894;2022-08-16T10:28:44;26.50;99.60
17385;DHT22;8810;48.680;8.894;2022-08-16T10:31:12;26.70;99.80
17385;DHT22;8810;48.680;8.894;2022-08-16T10:33:39;27.00;97.70
17385;DHT22;8810;48.680;8.894;2022-08-16T10:36:07;26.90;98.20
17385;DHT22;8810;48.680;8.894;2022-08-16T10:38:36;26.80;98.40
17385;DHT22;8810;48.680;8.894;2022-08-16T10:41:04;27.00;98.00
17385;DHT22;8810;48.680;8.894;2022-08-16T10:43:32;27.40;98.00
17385;DHT22;8810;48.680;8.894;2022-08-16T10:45:59;27.70;96.90
17385;DHT22;8810;48.680;8.894;2022-08-16T10:48:29;28.20;96.30
17385;DHT22;8810;48.680;8.894;2022-08-16T10:50:57;28.60;95.50
17385;DHT22;8810;48.680;8.894;2022-08-16T10:53:24;29.00;95.40
17385;DHT22;8810;48.680;8.894;2022-08-16T10:55:52;29.40;93.90
17385;DHT22;8810;48.680;8.894;2022-08-16T10:58:19;29.40;93.60
17385;DHT22;8810;48.680;8.894;2022-08-16T11:00:46;29.40;93.30
17385;DHT22;8810;48.680;8.894;2022-08-16T11:03:14;29.10;92.80
17385;DHT22;8810;48.680;8.894;2022-08-16T11:05:42;28.90;93.60
17385;DHT22;8810;48.680;8.894;2022-08-16T11:08:10;28.80;93.90
17385;DHT22;8810;48.680;8.894;2022-08-16T11:10:39;28.80;93.60
17385;DHT22;8810;48.680;8.894;2022-08-16T11:13:07;28.80;93.20
17385;DHT22;8810;48.680;8.894;2022-08-16T11:15:35;28.80;93.50
17385;DHT22;8810;48.680;8.894;2022-08-16T11:18:03;28.90;94.40
17385;DHT22;8810;48.680;8.894;2022-08-16T11:20:31;28.90;94.00
17385;DHT22;8810;48.680;8.894;2022-08-16T11:22:59;28.90;93.50
17385;DHT22;8810;48.680;8.894;2022-08-16T11:25:27;28.70;93.20
17385;DHT22;8810;48.680;8.894;2022-08-16T11:27:55;28.40;93.40
17385;DHT22;8810;48.680;8.894;2022-08-16T11:30:24;28.10;93.80
17385;DHT22;8810;48.680;8.894;2022-08-16T11:32:51;27.90;94.40
17385;DHT22;8810;48.680;8.894;2022-08-16T11:35:20;27.70;94.40
17385;DHT22;8810;48.680;8.894;2022-08-16T11:37:50;27.60;95.30
17385;DHT22;8810;48.680;8.894;2022-08-16T11:40:18;27.50;94.70
17385;DHT22;8810;48.680;8.894;2022-08-16T11:42:45;27.80;94.70
17385;DHT22;8810;48.680;8.894;2022-08-16T11:45:15;28.30;95.10
17385;DHT22;8810;48.680;8.894;2022-08-16T11:47:42;28.80;93.90
17385;DHT22;8810;48.680;8.894;2022-08-16T11:50:10;29.20;92.90
17385;DHT22;8810;48.680;8.894;2022-08-16T11:52:38;29.60;93.20
17385;DHT22;8810;48.680;8.894;2022-08-16T11:55:07;29.90;91.70
17385;DHT22;8810;48.680;8.894;2022-08-16T11:57:37;30.10;91.80
17385;DHT22;8810;48.680;8.894;2022-08-16T12:00:07;30.40;91.10
17385;DHT22;8810;48.680;8.894;2022-08-16T12:02:36;30.60;90.60
17385;DHT22;8810;48.680;8.894;2022-08-16T12:05:04;30.50;89.40
17385;DHT22;8810;48.680;8.894;2022-08-16T12:07:32;30.40;90.40
17385;DHT22;8810;48.680;8.894;2022-08-16T12:09:59;30.60;90.80
17385;DHT22;8810;48.680;8.894;2022-08-16T12:12:25;30.90;91.00
17385;DHT22;8810;48.680;8.894;2022-08-16T12:14:54;31.10;90.40
17385;DHT22;8810;48.680;8.894;2022-08-16T12:17:21;31.40;88.80
17385;DHT22;8810;48.680;8.894;2022-08-16T12:19:48;31.70;88.80
17385;DHT22;8810;48.680;8.894;2022-08-16T12:22:15;32.00;87.50
17385;DHT22;8810;48.680;8.894;2022-08-16T12:24:42;32.30;86.20
17385;DHT22;8810;48.680;8.894;2022-08-16T12:27:09;32.50;86.30
17385;DHT22;8810;48.680;8.894;2022-08-16T12:29:36;32.60;83.50
17385;DHT22;8810;48.680;8.894;2022-08-16T12:32:05;32.50;84.20
17385;DHT22;8810;48.680;8.894;2022-08-16T12:34:32;32.10;84.60
17385;DHT22;8810;48.680;8.894;2022-08-16T12:37:00;31.90;83.80
17385;DHT22;8810;48.680;8.894;2022-08-16T12:39:29;31.90;85.10
17385;DHT22;8810;48.680;8.894;2022-08-16T12:41:56;31.80;82.40
17385;DHT22;8810;48.680;8.894;2022-08-16T12:44:23;31.80;83.10
17385;DHT22;8810;48.680;8.894;2022-08-16T12:46:51;32.00;82.70
17385;DHT22;8810;48.680;8.894;2022-08-16T12:49:34;32.10;84.80
17385;DHT22;8810;48.680;8.894;2022-08-16T12:52:01;32.40;83.90
17385;DHT22;8810;48.680;8.894;2022-08-16T12:54:28;32.60;82.40
17385;DHT22;8810;48.680;8.894;2022-08-16T12:56:55;32.80;82.00
17385;DHT22;8810;48.680;8.894;2022-08-16T12:59:22;32.90;82.20
17385;DHT22;8810;48.680;8.894;2022-08-16T13:01:50;33.00;78.50
17385;DHT22;8810;48.680;8.894;2022-08-16T13:04:17;32.80;78.40
17385;DHT22;8810;48.680;8.894;2022-08-16T13:06:45;32.70;78.00
17385;DHT22;8810;48.680;8.894;2022-08-16T13:09:14;32.70;77.40
17385;DHT22;8810;48.680;8.894;2022-08-16T13:11:52;32.50;77.00
17385;DHT22;8810;48.680;8.894;2022-08-16T13:14:25;32.40;77.40
17385;DHT22;8810;48.680;8.894;2022-08-16T13:16:53;32.10;76.50
17385;DHT22;8810;48.680;8.894;2022-08-16T13:19:20;32.00;78.00
17385;DHT22;8810;48.680;8.894;2022-08-16T13:21:48;32.10;77.10
17385;DHT22;8810;48.680;8.894;2022-08-16T13:24:15;32.00;75.90
17385;DHT22;8810;48.680;8.894;2022-08-16T13:26:42;32.00;77.20
17385;DHT22;8810;48.680;8.894;2022-08-16T13:29:09;32.20;77.40
17385;DHT22;8810;48.680;8.894;2022-08-16T13:31:36;32.40;76.90
17385;DHT22;8810;48.680;8.894;2022-08-16T13:34:03;32.70;77.30
17385;DHT22;8810;48.680;8.894;2022-08-16T13:36:30;32.80;77.50
17385;DHT22;8810;48.680;8.894;2022-08-16T13:38:59;33.00;77.70
17385;DHT22;8810;48.680;8.894;2022-08-16T13:41:27;33.10;76.00
17385;DHT22;8810;48.680;8.894;2022-08-16T13:43:53;33.20;75.60
17385;DHT22;8810;48.680;8.894;2022-08-16T13:46:21;33.20;75.20
17385;DHT22;8810;48.680;8.894;2022-08-16T13:48:48;33.20;76.00
17385;DHT22;8810;48.680;8.894;2022-08-16T13:51:17;33.10;75.80
17385;DHT22;8810;48.680;8.894;2022-08-16T13:53:45;33.00;76.20
17385;DHT22;8810;48.680;8.894;2022-08-16T13:56:13;33.00;75.70
17385;DHT22;8810;48.680;8.894;2022-08-16T13:58:42;32.80;75.60
17385;DHT22;8810;48.680;8.894;2022-08-16T14:01:10;32.60;75.70
17385;DHT22;8810;48.680;8.894;2022-08-16T14:03:37;32.20;76.70
17385;DHT22;8810;48.680;8.894;2022-08-16T14:06:05;31.80;76.90
17385;DHT22;8810;48.680;8.894;2022-08-16T14:08:32;31.40;77.80
17385;DHT22;8810;48.680;8.894;2022-08-16T14:10:59;31.10;77.40
17385;DHT22;8810;48.680;8.894;2022-08-16T14:13:27;30.90;78.70
17385;DHT22;8810;48.680;8.894;2022-08-16T14:15:54;30.80;80.30
17385;DHT22;8810;48.680;8.894;2022-08-16T14:18:21;30.70;79.40
17385;DHT22;8810;48.680;8.894;2022-08-16T14:20:48;30.70;81.50
17385;DHT22;8810;48.680;8.894;2022-08-16T14:23:16;30.60;79.00
17385;DHT22;8810;48.680;8.894;2022-08-16T14:25:43;30.50;76.20
17385;DHT22;8810;48.680;8.894;2022-08-16T14:28:10;30.20;76.70
17385;DHT22;8810;48.680;8.894;2022-08-16T14:30:38;30.00;77.30
17385;DHT22;8810;48.680;8.894;2022-08-16T14:33:05;29.80;78.00
17385;DHT22;8810;48.680;8.894;2022-08-16T14:35:33;29.60;77.40
17385;DHT22;8810;48.680;8.894;2022-08-16T14:38:00;29.80;81.00
17385;DHT22;8810;48.680;8.894;2022-08-16T14:40:27;30.10;79.70
17385;DHT22;8810;48.680;8.894;2022-08-16T14:42:55;30.20;76.60
17385;DHT22;8810;48.680;8.894;2022-08-16T14:45:24;30.20;76.70
17385;DHT22;8810;48.680;8.894;2022-08-16T14:47:52;30.30;77.00
17385;DHT22;8810;48.680;8.894;2022-08-16T14:50:22;30.60;77.10
17385;DHT22;8810;48.680;8.894;2022-08-16T14:52:53;31.00;77.20
17385;DHT22;8810;48.680;8.894;2022-08-16T14:55:21;31.20;74.80
17385;DHT22;8810;48.680;8.894;2022-08-16T14:57:48;31.30;74.20
17385;DHT22;8810;48.680;8.894;2022-08-16T15:00:16;31.30;74.80
17385;DHT22;8810;48.680;8.894;2022-08-16T15:02:43;31.40;74.50
17385;DHT22;8810;48.680;8.894;2022-08-16T15:05:11;31.50;75.30
17385;DHT22;8810;48.680;8.894;2022-08-16T15:07:39;31.70;75.50
17385;DHT22;8810;48.680;8.894;2022-08-16T15:10:07;31.70;73.70
17385;DHT22;8810;48.680;8.894;2022-08-16T15:12:34;31.70;74.50
17385;DHT22;8810;48.680;8.894;2022-08-16T15:15:06;31.70;73.60
17385;DHT22;8810;48.680;8.894;2022-08-16T15:17:35;31.80;74.10
17385;DHT22;8810;48.680;8.894;2022-08-16T15:20:04;31.80;72.40
17385;DHT22;8810;48.680;8.894;2022-08-16T15:22:35;31.80;72.70
17385;DHT22;8810;48.680;8.894;2022-08-16T15:25:05;31.70;74.00
17385;DHT22;8810;48.680;8.894;2022-08-16T15:27:33;31.70;73.20
17385;DHT22;8810;48.680;8.894;2022-08-16T15:30:08;31.60;74.00
17385;DHT22;8810;48.680;8.894;2022-08-16T15:32:36;31.40;75.20
17385;DHT22;8810;48.680;8.894;2022-08-16T15:35:04;31.20;75.10
17385;DHT22;8810;48.680;8.894;2022-08-16T15:37:32;31.10;75.20
17385;DHT22;8810;48.680;8.894;2022-08-16T15:40:03;31.10;76.10
17385;DHT22;8810;48.680;8.894;2022-08-16T15:42:30;31.10;75.10
17385;DHT22;8810;48.680;8.894;2022-08-16T15:44:57;31.00;75.20
17385;DHT22;8810;48.680;8.894;2022-08-16T15:47:24;30.90;75.40
17385;DHT22;8810;48.680;8.894;2022-08-16T15:49:52;30.80;75.70
17385;DHT22;8810;48.680;8.894;2022-08-16T15:52:21;30.50;76.20